createdAt,value
2022-09-23T00:01:20.311Z,8.00
2022-09-23T00:03:49.128Z,7.90
2022-09-23T00:06:22.784Z,7.80
2022-09-23T00:08:51.232Z,7.80
2022-09-23T00:11:27.050Z,7.70
2022-09-23T00:13:58.015Z,7.70
2022-09-23T00:16:34.006Z,7.70
2022-09-23T00:19:02.804Z,7.60
2022-09-23T00:21:30.029Z,7.60
2022-09-23T00:23:56.974Z,7.70
2022-09-23T00:26:25.068Z,7.60
2022-09-23T00:28:52.532Z,7.50
2022-09-23T00:31:26.155Z,7.50
2022-09-23T00:33:56.675Z,7.50
2022-09-23T00:36:25.387Z,7.50
2022-09-23T00:38:53.644Z,7.50
2022-09-23T00:41:21.495Z,7.50
2022-09-23T00:43:58.881Z,7.50
2022-09-23T00:46:34.937Z,7.50
2022-09-23T00:49:25.180Z,7.50
2022-09-23T00:52:02.798Z,7.50
2022-09-23T00:54:30.236Z,7.40
2022-09-23T00:56:59.783Z,7.30
2022-09-23T00:59:29.128Z,7.30
2022-09-23T01:01:59.236Z,7.30
2022-09-23T01:04:30.280Z,7.30
2022-09-23T01:06:57.291Z,7.20
2022-09-23T01:09:25.728Z,7.30
2022-09-23T01:12:13.005Z,7.30
2022-09-23T01:14:56.341Z,7.30
2022-09-23T01:17:54.940Z,7.40
2022-09-23T01:20:47.119Z,7.30
2022-09-23T01:23:40.346Z,7.30
2022-09-23T01:27:06.210Z,7.40
2022-09-23T01:30:08.527Z,7.40
2022-09-23T01:33:04.953Z,7.40
2022-09-23T01:35:47.607Z,7.40
2022-09-23T01:38:38.998Z,7.40
2022-09-23T01:41:42.631Z,7.40
2022-09-23T01:44:29.805Z,7.40
2022-09-23T01:47:37.098Z,7.40
2022-09-23T01:50:36.487Z,7.40
2022-09-23T01:53:12.169Z,7.40
2022-09-23T01:55:47.553Z,7.40
2022-09-23T01:58:25.320Z,7.50
2022-09-23T02:01:04.273Z,7.40
2022-09-23T02:03:55.293Z,7.40
2022-09-23T02:06:36.498Z,7.30
2022-09-23T02:09:13.058Z,7.30
2022-09-23T02:11:45.177Z,7.30
2022-09-23T02:14:31.512Z,7.40
2022-09-23T02:17:09.468Z,7.40
2022-09-23T02:19:47.976Z,7.30
2022-09-23T02:22:30.181Z,7.20
2022-09-23T02:24:58.300Z,7.20
2022-09-23T02:28:06.539Z,7.20
2022-09-23T02:30:46.672Z,7.20
2022-09-23T02:33:30.475Z,7.20
2022-09-23T02:36:09.455Z,7.20
2022-09-23T02:38:45.136Z,7.20
2022-09-23T02:41:38.984Z,7.20
2022-09-23T02:44:17.113Z,7.10
2022-09-23T02:46:44.662Z,7.00
2022-09-23T02:49:23.305Z,7.00
2022-09-23T02:51:51.292Z,6.90
2022-09-23T02:54:26.065Z,6.90
2022-09-23T02:56:53.503Z,6.80
2022-09-23T02:59:23.113Z,6.80
2022-09-23T03:02:17.773Z,6.70
2022-09-23T03:05:18.129Z,6.60
2022-09-23T03:08:19.403Z,6.60
2022-09-23T03:11:13.736Z,6.50
2022-09-23T03:14:07.026Z,6.50
2022-09-23T03:16:47.704Z,6.50
2022-09-23T03:19:42.308Z,6.40
2022-09-23T03:22:16.357Z,6.40
2022-09-23T03:24:46.126Z,6.50
2022-09-23T03:27:23.433Z,6.40
2022-09-23T03:29:53.368Z,6.50
2022-09-23T03:32:23.790Z,6.60
2022-09-23T03:34:55.365Z,6.60
2022-09-23T03:38:25.918Z,6.60
2022-09-23T03:40:56.307Z,6.60
2022-09-23T03:43:23.626Z,6.80
2022-09-23T03:45:57.720Z,6.70
2022-09-23T03:48:25.972Z,6.80
2022-09-23T03:50:53.032Z,6.80
2022-09-23T03:53:21.238Z,6.90
2022-09-23T03:55:48.459Z,6.90
2022-09-23T03:58:16.105Z,6.90
2022-09-23T04:00:44.401Z,7.00
2022-09-23T04:03:12.086Z,7.10
2022-09-23T04:05:39.507Z,7.00
2022-09-23T04:08:07.148Z,7.00
2022-09-23T04:10:34.482Z,7.00
2022-09-23T04:13:02.111Z,7.10
2022-09-23T04:15:29.247Z,7.00
2022-09-23T04:17:56.559Z,7.00
2022-09-23T04:20:23.919Z,7.00
2022-09-23T04:22:50.997Z,7.00
2022-09-23T04:25:18.266Z,7.00
2022-09-23T04:27:45.497Z,6.90
2022-09-23T04:30:14.035Z,6.90
2022-09-23T04:32:41.300Z,6.90
2022-09-23T04:35:08.821Z,6.90
2022-09-23T04:37:36.565Z,6.80
2022-09-23T04:40:04.041Z,6.80
2022-09-23T04:42:31.279Z,6.70
2022-09-23T04:44:58.921Z,6.70
2022-09-23T04:47:26.248Z,6.60
2022-09-23T04:49:57.752Z,6.50
2022-09-23T04:52:27.223Z,6.50
2022-09-23T04:54:54.259Z,6.40
2022-09-23T04:57:21.335Z,6.30
2022-09-23T04:59:49.133Z,6.30
2022-09-23T05:02:16.767Z,6.40
2022-09-23T05:04:44.515Z,6.20
2022-09-23T05:07:12.148Z,6.30
2022-09-23T05:09:39.480Z,6.30
2022-09-23T05:12:07.270Z,6.30
2022-09-23T05:14:34.743Z,6.30
2022-09-23T05:17:02.210Z,6.30
2022-09-23T05:19:29.574Z,6.40
2022-09-23T05:21:56.941Z,6.40
2022-09-23T05:24:25.218Z,6.40
2022-09-23T05:26:54.144Z,6.50
2022-09-23T05:29:21.211Z,6.50
2022-09-23T05:31:48.663Z,6.50
2022-09-23T05:34:15.765Z,6.60
2022-09-23T05:36:43.620Z,6.70
2022-09-23T05:39:11.061Z,6.70
2022-09-23T05:41:38.621Z,6.80
2022-09-23T05:44:06.133Z,6.90
2022-09-23T05:46:33.631Z,6.90
2022-09-23T05:49:03.492Z,6.90
2022-09-23T05:51:33.130Z,7.00
2022-09-23T05:54:03.019Z,7.10
2022-09-23T05:56:31.625Z,7.20
2022-09-23T05:59:00.995Z,7.20
2022-09-23T06:01:34.106Z,7.30
2022-09-23T06:04:05.186Z,7.40
2022-09-23T06:06:39.322Z,7.50
2022-09-23T06:09:09.885Z,7.50
2022-09-23T06:11:37.518Z,7.60
2022-09-23T06:14:05.327Z,7.70
2022-09-23T06:16:35.209Z,7.70
2022-09-23T06:19:06.174Z,7.80
2022-09-23T06:21:36.285Z,7.90
2022-09-23T06:24:04.512Z,8.00
2022-09-23T06:26:33.954Z,8.10
2022-09-23T06:29:06.086Z,8.10
2022-09-23T06:31:34.744Z,8.20
2022-09-23T06:34:10.682Z,8.20
2022-09-23T06:36:46.192Z,8.30
2022-09-23T06:39:17.102Z,8.50
2022-09-23T06:41:45.192Z,8.50
2022-09-23T06:44:16.066Z,8.50
2022-09-23T06:46:44.227Z,8.70
2022-09-23T06:49:12.326Z,8.70
2022-09-23T06:51:40.344Z,8.70
2022-09-23T06:54:08.059Z,8.90
2022-09-23T06:56:39.132Z,8.80
2022-09-23T06:59:10.452Z,9.00
2022-09-23T07:01:38.127Z,9.10
2022-09-23T07:04:05.310Z,9.20
2022-09-23T07:06:32.325Z,9.20
2022-09-23T07:09:00.861Z,9.40
2022-09-23T07:11:27.878Z,9.40
2022-09-23T07:13:55.265Z,9.40
2022-09-23T07:16:22.548Z,9.50
2022-09-23T07:18:49.571Z,9.60
2022-09-23T07:21:18.601Z,9.70
2022-09-23T07:23:48.710Z,9.70
2022-09-23T07:26:18.034Z,9.80
2022-09-23T07:28:45.616Z,9.90
2022-09-23T07:31:29.398Z,9.90
2022-09-23T07:34:01.338Z,10.00
2022-09-23T07:36:31.373Z,10.10
2022-09-23T07:39:03.626Z,10.20
2022-09-23T07:41:32.947Z,10.30
2022-09-23T07:44:00.613Z,10.40
2022-09-23T07:46:31.676Z,10.50
2022-09-23T07:48:59.746Z,10.60
2022-09-23T07:51:36.665Z,10.70
2022-09-23T07:54:10.712Z,10.80
2022-09-23T07:56:38.724Z,10.90
2022-09-23T07:59:09.023Z,11.00
2022-09-23T08:01:40.077Z,11.20
2022-09-23T08:04:14.436Z,11.20
2022-09-23T08:06:44.227Z,11.30
2022-09-23T08:09:11.880Z,11.40
2022-09-23T08:11:41.726Z,11.60
2022-09-23T08:14:13.615Z,11.60
2022-09-23T08:16:47.246Z,11.70
2022-09-23T08:19:15.597Z,11.90
2022-09-23T08:21:43.720Z,11.90
2022-09-23T08:24:18.790Z,12.00
2022-09-23T08:26:48.051Z,12.20
2022-09-23T08:29:17.678Z,12.30
2022-09-23T08:31:45.509Z,12.30
2022-09-23T08:34:12.839Z,12.40
2022-09-23T08:36:40.067Z,12.50
2022-09-23T08:39:07.530Z,12.60
2022-09-23T08:42:00.554Z,12.70
2022-09-23T08:44:37.722Z,12.70
2022-09-23T08:47:12.093Z,12.80
2022-09-23T08:50:20.284Z,12.90
2022-09-23T08:52:57.014Z,13.00
2022-09-23T08:55:34.363Z,13.10
2022-09-23T08:58:26.515Z,13.30
2022-09-23T09:01:02.349Z,13.30
2022-09-23T09:04:01.860Z,13.40
2022-09-23T09:06:52.321Z,13.60
2022-09-23T09:09:46.748Z,13.60
2022-09-23T09:12:32.717Z,13.70
2022-09-23T09:15:09.326Z,13.80
2022-09-23T09:17:54.966Z,13.90
2022-09-23T09:20:43.623Z,14.00
2022-09-23T09:23:36.933Z,14.10
2022-09-23T09:26:06.367Z,14.20
2022-09-23T09:29:11.456Z,14.30
2022-09-23T09:31:50.062Z,14.40
2022-09-23T09:34:54.728Z,14.50
2022-09-23T09:37:44.569Z,14.50
2022-09-23T09:40:13.012Z,14.60
2022-09-23T09:42:42.529Z,14.70
2022-09-23T09:45:24.206Z,14.80
2022-09-23T09:48:39.400Z,14.90
2022-09-23T09:51:24.603Z,15.00
2022-09-23T09:53:52.684Z,15.10
2022-09-23T09:56:34.191Z,15.20
2022-09-23T09:59:11.652Z,15.30
2022-09-23T10:01:39.226Z,15.30
2022-09-23T10:04:35.559Z,15.40
2022-09-23T10:07:16.949Z,15.50
2022-09-23T10:09:51.957Z,15.60
2022-09-23T10:12:25.241Z,15.70
2022-09-23T10:14:57.167Z,15.70
2022-09-23T10:17:33.139Z,15.80
2022-09-23T10:20:07.863Z,15.90
2022-09-23T10:22:42.376Z,15.90
2022-09-23T10:25:20.176Z,16.00
2022-09-23T10:27:47.511Z,16.10
2022-09-23T10:30:23.097Z,16.20
2022-09-23T10:32:54.867Z,16.10
2022-09-23T10:35:24.502Z,16.20
2022-09-23T10:37:53.505Z,16.20
2022-09-23T10:41:00.311Z,16.20
2022-09-23T10:44:14.098Z,16.40
2022-09-23T10:47:16.495Z,16.40
2022-09-23T10:50:23.961Z,16.50
2022-09-23T10:53:34.920Z,16.50
2022-09-23T10:56:23.177Z,16.60
2022-09-23T10:59:20.289Z,16.60
2022-09-23T11:02:35.906Z,16.60
2022-09-23T11:05:15.312Z,16.70
2022-09-23T11:08:14.862Z,16.70
2022-09-23T11:11:00.432Z,16.80
2022-09-23T11:13:40.785Z,16.90
2022-09-23T11:16:38.992Z,16.90
2022-09-23T11:19:33.719Z,17.00
2022-09-23T11:22:18.533Z,17.10
2022-09-23T11:25:19.317Z,17.20
2022-09-23T11:28:10.951Z,17.40
2022-09-23T11:31:27.310Z,17.50
2022-09-23T11:34:22.337Z,17.60
2022-09-23T11:36:57.974Z,17.80
2022-09-23T11:39:32.129Z,17.90
2022-09-23T11:42:02.366Z,18.10
2022-09-23T11:44:48.501Z,18.20
2022-09-23T11:47:23.822Z,18.40
2022-09-23T11:50:17.751Z,18.60
2022-09-23T11:52:51.860Z,18.90
2022-09-23T11:55:27.465Z,19.20
2022-09-23T11:58:00.036Z,19.40
2022-09-23T12:00:36.449Z,19.70
2022-09-23T12:03:22.713Z,20.00
2022-09-23T12:06:03.529Z,20.40
2022-09-23T12:08:35.443Z,20.80
2022-09-23T12:11:26.606Z,21.20
2022-09-23T12:14:33.666Z,21.70
2022-09-23T12:17:46.602Z,22.10
2022-09-23T12:20:35.456Z,22.50
2022-09-23T12:23:33.483Z,22.90
2022-09-23T12:26:08.247Z,23.30
2022-09-23T12:28:40.728Z,23.70
2022-09-23T12:31:18.760Z,24.00
2022-09-23T12:33:54.127Z,24.40
2022-09-23T12:36:35.390Z,24.70
2022-09-23T12:39:20.234Z,25.00
2022-09-23T12:41:50.709Z,25.40
2022-09-23T12:44:41.938Z,25.70
2022-09-23T12:47:15.284Z,26.10
2022-09-23T12:49:43.689Z,26.40
2022-09-23T12:52:16.604Z,26.70
2022-09-23T12:55:15.313Z,26.90
2022-09-23T12:57:42.748Z,27.20
2022-09-23T13:00:23.081Z,27.50
2022-09-23T13:03:10.049Z,27.80
2022-09-23T13:06:25.706Z,28.20
2022-09-23T13:08:53.228Z,28.60
2022-09-23T13:11:29.428Z,29.00
2022-09-23T13:14:04.304Z,29.30
2022-09-23T13:16:41.655Z,29.60
2022-09-23T13:19:27.134Z,29.90
2022-09-23T13:21:54.158Z,30.20
2022-09-23T13:24:34.937Z,30.40
2022-09-23T13:27:27.075Z,30.60
2022-09-23T13:30:05.991Z,30.90
2022-09-23T13:32:47.266Z,31.20
2022-09-23T13:35:15.721Z,31.50
2022-09-23T13:37:51.772Z,31.70
2022-09-23T13:40:27.086Z,32.00
2022-09-23T13:43:10.865Z,32.30
2022-09-23T13:45:43.030Z,32.40
2022-09-23T13:48:15.331Z,32.60
2022-09-23T13:50:51.197Z,32.80
2022-09-23T13:53:31.898Z,33.00
2022-09-23T13:56:15.088Z,33.10
2022-09-23T13:58:43.407Z,33.30
2022-09-23T14:01:31.360Z,33.50
2022-09-23T14:03:58.641Z,33.70
2022-09-23T14:06:29.659Z,33.90
2022-09-23T14:08:58.404Z,34.00
2022-09-23T14:11:35.444Z,34.00
2022-09-23T14:14:07.859Z,34.00
2022-09-23T14:16:40.896Z,34.00
2022-09-23T14:19:15.785Z,33.90
2022-09-23T14:21:43.181Z,33.90
2022-09-23T14:24:22.214Z,33.80
2022-09-23T14:27:15.701Z,33.70
2022-09-23T14:29:48.290Z,33.60
2022-09-23T14:32:26.244Z,33.60
2022-09-23T14:35:19.644Z,33.40
2022-09-23T14:38:10.994Z,33.30
2022-09-23T14:40:50.887Z,33.10
2022-09-23T14:43:26.081Z,33.00
2022-09-23T14:45:56.881Z,32.80
2022-09-23T14:48:32.330Z,32.70
2022-09-23T14:51:02.943Z,32.60
2022-09-23T14:53:50.541Z,32.40
2022-09-23T14:56:23.189Z,32.20
2022-09-23T14:58:57.813Z,31.90
2022-09-23T15:01:38.558Z,31.70
2022-09-23T15:04:23.084Z,31.40
2022-09-23T15:07:00.054Z,31.10
2022-09-23T15:09:41.315Z,30.80
2022-09-23T15:12:22.108Z,30.50
2022-09-23T15:14:54.291Z,30.30
2022-09-23T15:17:24.298Z,29.90
2022-09-23T15:19:59.913Z,29.60
2022-09-23T15:22:27.302Z,29.30
2022-09-23T15:25:10.762Z,28.80
2022-09-23T15:27:39.205Z,28.50
2022-09-23T15:30:15.423Z,28.00
2022-09-23T15:32:44.620Z,27.60
2022-09-23T15:35:21.815Z,27.30
2022-09-23T15:37:51.698Z,27.10
2022-09-23T15:40:29.161Z,26.80
2022-09-23T15:42:58.870Z,26.60
2022-09-23T15:45:37.512Z,26.40
2022-09-23T15:48:08.257Z,26.20
2022-09-23T15:50:36.757Z,25.80
2022-09-23T15:53:06.322Z,25.60
2022-09-23T15:55:33.863Z,25.20
2022-09-23T15:58:01.623Z,24.80
2022-09-23T16:00:28.690Z,24.40
2022-09-23T16:02:57.231Z,24.10
2022-09-23T16:05:36.470Z,23.60
2022-09-23T16:08:08.977Z,23.30
2022-09-23T16:10:37.835Z,22.90
2022-09-23T16:13:09.757Z,22.60
2022-09-23T16:15:39.132Z,22.20
2022-09-23T16:18:08.750Z,21.90
2022-09-23T16:20:42.788Z,21.50
2022-09-23T16:23:19.340Z,21.30
2022-09-23T16:25:46.424Z,21.00
2022-09-23T16:28:14.787Z,20.70
2022-09-23T16:30:41.906Z,20.40
2022-09-23T16:33:08.790Z,20.10
2022-09-23T16:35:38.296Z,19.90
2022-09-23T16:38:05.857Z,19.60
2022-09-23T16:40:33.205Z,19.30
2022-09-23T16:43:04.297Z,19.10
2022-09-23T16:45:31.989Z,18.80
2022-09-23T16:47:59.902Z,18.60
2022-09-23T16:50:28.707Z,18.30
2022-09-23T16:52:56.317Z,18.10
2022-09-23T16:55:25.722Z,17.90
2022-09-23T16:57:54.061Z,17.70
2022-09-23T17:00:40.162Z,17.50
2022-09-23T17:03:26.061Z,17.30
2022-09-23T17:05:54.709Z,17.10
2022-09-23T17:08:24.029Z,16.90
2022-09-23T17:11:00.069Z,16.70
2022-09-23T17:13:29.596Z,16.50
2022-09-23T17:15:56.685Z,16.30
2022-09-23T17:18:23.985Z,16.10
2022-09-23T17:21:04.281Z,15.90
2022-09-23T17:23:33.439Z,15.80
2022-09-23T17:26:02.536Z,15.60
2022-09-23T17:28:29.653Z,15.40
2022-09-23T17:31:03.412Z,15.20
2022-09-23T17:33:32.648Z,15.10
2022-09-23T17:36:02.700Z,14.90
2022-09-23T17:38:29.854Z,14.80
2022-09-23T17:40:59.786Z,14.70
2022-09-23T17:43:27.656Z,14.50
2022-09-23T17:46:11.361Z,14.40
2022-09-23T17:48:44.137Z,14.30
2022-09-23T17:51:17.409Z,14.20
2022-09-23T17:53:47.012Z,14.00
2022-09-23T17:56:25.000Z,13.90
2022-09-23T17:58:53.973Z,13.80
2022-09-23T18:01:25.084Z,13.70
2022-09-23T18:03:59.707Z,13.70
2022-09-23T18:06:31.796Z,13.60
2022-09-23T18:09:06.842Z,13.50
2022-09-23T18:11:37.953Z,13.40
2022-09-23T18:14:13.151Z,13.40
2022-09-23T18:16:43.137Z,13.30
2022-09-23T18:19:16.888Z,13.20
2022-09-23T18:21:50.747Z,13.20
2022-09-23T18:24:31.811Z,13.30
2022-09-23T18:27:00.889Z,13.10
2022-09-23T18:29:28.559Z,13.00
2022-09-23T18:31:56.243Z,13.00
2022-09-23T18:34:23.696Z,12.90
2022-09-23T18:36:51.089Z,12.80
2022-09-23T18:39:18.147Z,12.80
2022-09-23T18:41:45.049Z,12.70
2022-09-23T18:44:12.654Z,12.60
2022-09-23T18:46:39.705Z,12.70
2022-09-23T18:49:25.601Z,12.50
2022-09-23T18:51:56.078Z,12.40
2022-09-23T18:54:27.378Z,12.40
2022-09-23T18:56:55.296Z,12.30
2022-09-23T18:59:28.222Z,12.30
2022-09-23T19:01:56.272Z,12.20
2022-09-23T19:04:25.514Z,12.10
2022-09-23T19:06:54.803Z,12.00
2022-09-23T19:09:21.980Z,11.90
2022-09-23T19:11:53.156Z,11.80
2022-09-23T19:14:20.586Z,11.80
2022-09-23T19:16:49.311Z,11.70
2022-09-23T19:19:16.842Z,11.70
2022-09-23T19:21:43.861Z,11.60
2022-09-23T19:24:16.197Z,11.60
2022-09-23T19:26:44.011Z,11.50
2022-09-23T19:29:17.094Z,11.50
2022-09-23T19:31:44.370Z,11.40
2022-09-23T19:34:17.693Z,11.30
2022-09-23T19:36:47.833Z,11.20
2022-09-23T19:39:23.873Z,11.20
2022-09-23T19:41:53.803Z,11.10
2022-09-23T19:44:20.923Z,11.00
2022-09-23T19:46:55.173Z,10.90
2022-09-23T19:49:25.008Z,10.90
2022-09-23T19:51:57.242Z,10.90
2022-09-23T19:54:27.459Z,10.70
2022-09-23T19:56:55.277Z,10.70
2022-09-23T19:59:22.274Z,10.60
2022-09-23T20:01:54.761Z,10.50
2022-09-23T20:04:26.200Z,10.50
2022-09-23T20:06:53.233Z,10.50
2022-09-23T20:09:20.594Z,10.40
2022-09-23T20:11:49.811Z,10.40
2022-09-23T20:14:19.393Z,10.50
2022-09-23T20:16:46.477Z,10.30
2022-09-23T20:19:13.681Z,10.30
2022-09-23T20:21:40.739Z,10.20
2022-09-23T20:24:09.731Z,10.30
2022-09-23T20:26:55.113Z,10.20
2022-09-23T20:29:22.336Z,10.20
2022-09-23T20:31:49.599Z,10.10
2022-09-23T20:34:16.812Z,10.10
2022-09-23T20:36:44.271Z,10.10
2022-09-23T20:39:11.620Z,10.10
2022-09-23T20:41:39.367Z,10.10
2022-09-23T20:44:12.185Z,10.00
2022-09-23T20:46:48.132Z,9.90
2022-09-23T20:49:20.685Z,9.90
2022-09-23T20:51:48.938Z,9.90
2022-09-23T20:54:19.434Z,9.80
2022-09-23T20:56:47.517Z,9.80
2022-09-23T20:59:15.015Z,9.70
2022-09-23T21:01:43.032Z,9.70
2022-09-23T21:04:10.359Z,9.70
2022-09-23T21:06:38.949Z,9.70
2022-09-23T21:09:06.858Z,9.70
2022-09-23T21:11:34.504Z,9.70
2022-09-23T21:14:02.120Z,9.60
2022-09-23T21:16:30.679Z,9.60
2022-09-23T21:18:58.890Z,9.50
2022-09-23T21:21:26.807Z,9.50
2022-09-23T21:23:53.814Z,9.50
2022-09-23T21:26:25.905Z,9.40
2022-09-23T21:28:56.990Z,9.40
2022-09-23T21:31:36.657Z,9.30
2022-09-23T21:34:14.466Z,9.30
2022-09-23T21:36:43.502Z,9.30
2022-09-23T21:39:12.401Z,9.30
2022-09-23T21:41:40.164Z,9.20
2022-09-23T21:44:08.634Z,9.20
2022-09-23T21:46:36.732Z,9.20
2022-09-23T21:49:05.043Z,9.10
2022-09-23T21:51:40.875Z,9.10
2022-09-23T21:54:15.684Z,9.10
2022-09-23T21:56:44.011Z,9.10
2022-09-23T21:59:11.265Z,9.00
2022-09-23T22:01:44.860Z,9.00
2022-09-23T22:04:17.103Z,9.00
2022-09-23T22:06:46.934Z,9.00
2022-09-23T22:09:21.175Z,9.00
2022-09-23T22:12:09.630Z,8.90
2022-09-23T22:14:37.054Z,9.00
2022-09-23T22:17:07.212Z,8.90
2022-09-23T22:19:45.573Z,8.90
2022-09-23T22:22:16.197Z,8.80
2022-09-23T22:24:45.608Z,8.90
2022-09-23T22:27:16.213Z,8.90
2022-09-23T22:30:01.475Z,8.80
2022-09-23T22:32:34.703Z,9.00
2022-09-23T22:35:01.941Z,8.80
2022-09-23T22:37:34.852Z,8.80
2022-09-23T22:40:09.607Z,8.80
2022-09-23T22:42:37.669Z,8.80
2022-09-23T22:45:05.841Z,8.80
2022-09-23T22:47:38.828Z,8.80
2022-09-23T22:50:08.407Z,8.70
2022-09-23T22:52:36.176Z,8.70
2022-09-23T22:55:04.931Z,8.70
2022-09-23T22:57:31.961Z,8.70
2022-09-23T22:59:59.202Z,8.70
2022-09-23T23:02:26.171Z,8.60
2022-09-23T23:04:53.376Z,8.70
2022-09-23T23:07:21.501Z,8.60
2022-09-23T23:09:52.621Z,8.60
2022-09-23T23:12:21.249Z,8.70
2022-09-23T23:14:49.508Z,8.60
2022-09-23T23:17:17.430Z,8.50
2022-09-23T23:19:45.228Z,8.60
2022-09-23T23:22:12.210Z,8.50
2022-09-23T23:24:39.235Z,8.60
2022-09-23T23:27:06.217Z,8.50
2022-09-23T23:29:33.300Z,8.50
2022-09-23T23:32:00.224Z,8.50
2022-09-23T23:34:27.942Z,8.50
2022-09-23T23:36:55.930Z,8.50
2022-09-23T23:39:25.154Z,8.50
2022-09-23T23:41:55.264Z,8.50
2022-09-23T23:44:24.507Z,8.50
2022-09-23T23:46:52.675Z,8.50
2022-09-23T23:49:20.059Z,8.40
2022-09-23T23:51:47.848Z,8.40
2022-09-23T23:54:15.488Z,8.40
2022-09-23T23:56:43.036Z,8.40
2022-09-23T23:59:10.319Z,8.50
